sensor_id;sensor_type;location;lat;lon;timestamp;pressure;altitude;pressure_sealevel;temperature;humidity
76122;BME280;70471;53.200;6.080;2023-12-20T00:04:09;101234.63;;;20.81;35.87
76122;BME280;70471;53.200;6.080;2023-12-20T00:09:02;101241.84;;;20.82;35.81
76122;BME280;70471;53.200;6.080;2023-12-20T00:13:56;101245.50;;;20.78;35.85
76122;BME280;70471;53.200;6.080;2023-12-20T00:18:49;101230.44;;;20.65;35.93
76122;BME280;70471;53.200;6.080;2023-12-20T00:23:41;101227.00;;;20.73;35.48
76122;BME280;70471;53.200;6.080;2023-12-20T00:28:33;101227.44;;;20.61;35.57
76122;BME280;70471;53.200;6.080;2023-12-20T00:33:27;101246.44;;;20.68;35.46
76122;BME280;70471;53.200;6.080;2023-12-20T00:38:20;101238.75;;;20.65;35.44
76122;BME280;70471;53.200;6.080;2023-12-20T00:43:12;101211.00;;;20.46;35.57
76122;BME280;70471;53.200;6.080;2023-12-20T00:48:05;101218.94;;;20.52;35.46
76122;BME280;70471;53.200;6.080;2023-12-20T00:52:58;101218.44;;;20.50;35.42
76122;BME280;70471;53.200;6.080;2023-12-20T00:57:50;101202.94;;;20.49;35.67
76122;BME280;70471;53.200;6.080;2023-12-20T01:02:44;101200.16;;;20.49;35.76
76122;BME280;70471;53.200;6.080;2023-12-20T01:07:37;101193.09;;;20.38;35.61
76122;BME280;70471;53.200;6.080;2023-12-20T01:12:30;101230.69;;;20.44;35.63
76122;BME280;70471;53.200;6.080;2023-12-20T01:17:22;101206.13;;;20.37;35.42
76122;BME280;70471;53.200;6.080;2023-12-20T01:22:15;101195.91;;;20.33;35.31
76122;BME280;70471;53.200;6.080;2023-12-20T01:27:07;101192.59;;;20.36;35.38
76122;BME280;70471;53.200;6.080;2023-12-20T01:32:01;101193.16;;;20.33;35.14
76122;BME280;70471;53.200;6.080;2023-12-20T01:36:53;101193.44;;;20.31;35.51
76122;BME280;70471;53.200;6.080;2023-12-20T01:41:46;101183.78;;;20.29;35.41
76122;BME280;70471;53.200;6.080;2023-12-20T01:46:38;101186.31;;;20.25;35.16
76122;BME280;70471;53.200;6.080;2023-12-20T01:51:32;101179.19;;;20.19;35.40
76122;BME280;70471;53.200;6.080;2023-12-20T01:56:25;101184.34;;;20.26;35.55
76122;BME280;70471;53.200;6.080;2023-12-20T02:01:17;101180.25;;;20.23;35.67
76122;BME280;70471;53.200;6.080;2023-12-20T02:06:11;101163.44;;;20.19;35.56
76122;BME280;70471;53.200;6.080;2023-12-20T02:11:04;101146.41;;;20.07;35.55
76122;BME280;70471;53.200;6.080;2023-12-20T02:15:57;101148.59;;;20.10;35.38
76122;BME280;70471;53.200;6.080;2023-12-20T02:20:49;101156.81;;;20.15;35.59
76122;BME280;70471;53.200;6.080;2023-12-20T02:25:42;101132.88;;;20.06;35.77
76122;BME280;70471;53.200;6.080;2023-12-20T02:30:35;101141.63;;;20.13;35.33
76122;BME280;70471;53.200;6.080;2023-12-20T02:35:27;101144.66;;;20.16;35.59
76122;BME280;70471;53.200;6.080;2023-12-20T02:40:19;101138.56;;;20.14;35.18
76122;BME280;70471;53.200;6.080;2023-12-20T02:45:13;101122.25;;;20.13;35.27
76122;BME280;70471;53.200;6.080;2023-12-20T02:50:06;101127.50;;;20.14;35.74
76122;BME280;70471;53.200;6.080;2023-12-20T02:54:58;101117.38;;;20.05;35.69
76122;BME280;70471;53.200;6.080;2023-12-20T02:59:51;101138.06;;;20.12;35.33
76122;BME280;70471;53.200;6.080;2023-12-20T03:04:44;101095.13;;;19.91;35.30
76122;BME280;70471;53.200;6.080;2023-12-20T03:09:36;101123.16;;;20.08;35.33
76122;BME280;70471;53.200;6.080;2023-12-20T03:14:29;101110.19;;;20.04;35.63
76122;BME280;70471;53.200;6.080;2023-12-20T03:19:21;101108.28;;;20.04;35.57
76122;BME280;70471;53.200;6.080;2023-12-20T03:24:16;101106.81;;;20.12;35.13
76122;BME280;70471;53.200;6.080;2023-12-20T03:29:08;101098.53;;;20.07;35.59
76122;BME280;70471;53.200;6.080;2023-12-20T03:34:00;101094.69;;;20.08;35.28
76122;BME280;70471;53.200;6.080;2023-12-20T03:38:52;101098.22;;;20.13;35.45
76122;BME280;70471;53.200;6.080;2023-12-20T03:43:46;101092.19;;;20.06;35.60
76122;BME280;70471;53.200;6.080;2023-12-20T03:48:38;101097.16;;;20.09;35.48
76122;BME280;70471;53.200;6.080;2023-12-20T03:53:31;101074.78;;;20.06;35.20
76122;BME280;70471;53.200;6.080;2023-12-20T03:58:23;101061.31;;;19.99;35.27
76122;BME280;70471;53.200;6.080;2023-12-20T04:03:16;101083.84;;;20.11;35.07
76122;BME280;70471;53.200;6.080;2023-12-20T04:08:08;101077.72;;;20.14;35.10
76122;BME280;70471;53.200;6.080;2023-12-20T04:13:01;101053.09;;;20.13;35.60
76122;BME280;70471;53.200;6.080;2023-12-20T04:17:53;101058.63;;;20.13;35.58
76122;BME280;70471;53.200;6.080;2023-12-20T04:22:47;101027.59;;;19.97;35.27
76122;BME280;70471;53.200;6.080;2023-12-20T04:27:40;101055.06;;;20.12;35.18
76122;BME280;70471;53.200;6.080;2023-12-20T04:32:31;101042.47;;;20.01;35.40
76122;BME280;70471;53.200;6.080;2023-12-20T04:37:24;101056.53;;;20.05;35.40
76122;BME280;70471;53.200;6.080;2023-12-20T04:42:18;101029.75;;;20.00;35.24
76122;BME280;70471;53.200;6.080;2023-12-20T04:47:11;101051.22;;;20.08;35.18
76122;BME280;70471;53.200;6.080;2023-12-20T04:52:04;101039.88;;;20.10;35.40
76122;BME280;70471;53.200;6.080;2023-12-20T04:56:56;101014.59;;;19.97;35.13
76122;BME280;70471;53.200;6.080;2023-12-20T05:01:53;101053.19;;;20.08;35.35
76122;BME280;70471;53.200;6.080;2023-12-20T05:06:45;101062.28;;;20.08;35.53
76122;BME280;70471;53.200;6.080;2023-12-20T05:11:38;101043.81;;;20.04;35.30
76122;BME280;70471;53.200;6.080;2023-12-20T05:16:31;101032.75;;;20.04;35.38
76122;BME280;70471;53.200;6.080;2023-12-20T05:21:24;101044.00;;;20.12;35.15
76122;BME280;70471;53.200;6.080;2023-12-20T05:26:17;101028.88;;;20.05;34.94
76122;BME280;70471;53.200;6.080;2023-12-20T05:31:09;101032.41;;;20.10;35.45
76122;BME280;70471;53.200;6.080;2023-12-20T05:36:02;101002.31;;;20.04;35.47
76122;BME280;70471;53.200;6.080;2023-12-20T05:40:56;101028.50;;;20.11;34.85
76122;BME280;70471;53.200;6.080;2023-12-20T05:45:48;101032.41;;;20.10;34.90
76122;BME280;70471;53.200;6.080;2023-12-20T05:50:40;101018.34;;;20.07;35.14
76122;BME280;70471;53.200;6.080;2023-12-20T05:55:33;101028.50;;;20.11;35.38
76122;BME280;70471;53.200;6.080;2023-12-20T06:00:26;101009.81;;;20.03;35.25
76122;BME280;70471;53.200;6.080;2023-12-20T06:05:19;101010.50;;;20.14;35.02
76122;BME280;70471;53.200;6.080;2023-12-20T06:10:11;101000.41;;;20.04;35.16
76122;BME280;70471;53.200;6.080;2023-12-20T06:15:05;101009.44;;;20.10;35.28
76122;BME280;70471;53.200;6.080;2023-12-20T06:19:59;101001.41;;;20.13;34.85
76122;BME280;70471;53.200;6.080;2023-12-20T06:24:51;100991.50;;;20.07;35.12
76122;BME280;70471;53.200;6.080;2023-12-20T06:29:44;100995.78;;;20.18;35.33
76122;BME280;70471;53.200;6.080;2023-12-20T06:34:37;100996.09;;;20.36;34.84
76122;BME280;70471;53.200;6.080;2023-12-20T06:39:32;100988.59;;;20.55;34.77
76122;BME280;70471;53.200;6.080;2023-12-20T06:44:24;100975.56;;;20.75;34.72
76122;BME280;70471;53.200;6.080;2023-12-20T06:49:16;100961.63;;;20.80;34.64
76122;BME280;70471;53.200;6.080;2023-12-20T06:54:09;100970.06;;;21.03;34.63
76122;BME280;70471;53.200;6.080;2023-12-20T06:59:02;100955.09;;;21.04;34.74
76122;BME280;70471;53.200;6.080;2023-12-20T07:03:54;100960.50;;;21.28;34.66
76122;BME280;70471;53.200;6.080;2023-12-20T07:08:46;100958.44;;;21.48;35.34
76122;BME280;70471;53.200;6.080;2023-12-20T07:13:39;100934.22;;;21.53;34.66
76122;BME280;70471;53.200;6.080;2023-12-20T07:18:32;100949.25;;;21.75;34.73
76122;BME280;70471;53.200;6.080;2023-12-20T07:23:24;100957.59;;;21.89;34.27
76122;BME280;70471;53.200;6.080;2023-12-20T07:28:17;100962.22;;;21.93;34.13
76122;BME280;70471;53.200;6.080;2023-12-20T07:33:09;100967.22;;;22.05;34.08
76122;BME280;70471;53.200;6.080;2023-12-20T07:38:04;100976.56;;;22.09;34.18
76122;BME280;70471;53.200;6.080;2023-12-20T07:42:57;100968.81;;;22.20;33.95
76122;BME280;70471;53.200;6.080;2023-12-20T07:47:49;100972.19;;;22.31;33.63
76122;BME280;70471;53.200;6.080;2023-12-20T07:52:42;100965.38;;;22.37;33.82
76122;BME280;70471;53.200;6.080;2023-12-20T07:57:35;100981.81;;;22.47;33.85
76122;BME280;70471;53.200;6.080;2023-12-20T08:02:28;100978.59;;;22.54;33.61
76122;BME280;70471;53.200;6.080;2023-12-20T08:07:20;100974.69;;;22.55;33.44
76122;BME280;70471;53.200;6.080;2023-12-20T08:12:12;100991.72;;;22.62;33.51
76122;BME280;70471;53.200;6.080;2023-12-20T08:17:06;100987.81;;;22.63;33.33
76122;BME280;70471;53.200;6.080;2023-12-20T08:21:58;100991.78;;;22.71;33.53
76122;BME280;70471;53.200;6.080;2023-12-20T08:26:49;100993.13;;;22.74;33.52
76122;BME280;70471;53.200;6.080;2023-12-20T08:31:41;100974.16;;;22.76;33.13
76122;BME280;70471;53.200;6.080;2023-12-20T08:36:35;100974.97;;;22.76;33.42
76122;BME280;70471;53.200;6.080;2023-12-20T08:41:27;100960.53;;;22.65;33.47
76122;BME280;70471;53.200;6.080;2023-12-20T08:46:19;100995.63;;;22.84;33.22
76122;BME280;70471;53.200;6.080;2023-12-20T08:51:12;100986.41;;;22.75;32.95
76122;BME280;70471;53.200;6.080;2023-12-20T08:56:06;101060.16;;;22.81;33.24
76122;BME280;70471;53.200;6.080;2023-12-20T09:00:58;101078.06;;;22.75;33.22
76122;BME280;70471;53.200;6.080;2023-12-20T09:05:50;101073.75;;;22.68;33.21
76122;BME280;70471;53.200;6.080;2023-12-20T09:10:42;101066.19;;;22.60;33.26
76122;BME280;70471;53.200;6.080;2023-12-20T09:15:37;101067.84;;;22.61;33.24
76122;BME280;70471;53.200;6.080;2023-12-20T09:20:29;101063.72;;;22.59;33.38
76122;BME280;70471;53.200;6.080;2023-12-20T09:25:21;101073.59;;;22.65;33.40
76122;BME280;70471;53.200;6.080;2023-12-20T09:30:14;101087.16;;;22.66;33.83
76122;BME280;70471;53.200;6.080;2023-12-20T09:35:08;101074.22;;;22.62;33.90
76122;BME280;70471;53.200;6.080;2023-12-20T09:40:00;101048.84;;;22.55;33.62
76122;BME280;70471;53.200;6.080;2023-12-20T09:44:53;101077.16;;;22.65;33.47
76122;BME280;70471;53.200;6.080;2023-12-20T09:49:46;101080.38;;;22.59;33.28
76122;BME280;70471;53.200;6.080;2023-12-20T09:54:39;101084.81;;;22.60;33.45
76122;BME280;70471;53.200;6.080;2023-12-20T09:59:31;101096.25;;;22.58;33.49
76122;BME280;70471;53.200;6.080;2023-12-20T10:04:23;101091.72;;;22.62;33.13
76122;BME280;70471;53.200;6.080;2023-12-20T10:09:16;101089.25;;;22.61;33.21
76122;BME280;70471;53.200;6.080;2023-12-20T10:14:10;101089.88;;;22.58;33.25
76122;BME280;70471;53.200;6.080;2023-12-20T10:19:02;101099.00;;;22.58;32.99
76122;BME280;70471;53.200;6.080;2023-12-20T10:23:54;101096.75;;;22.60;32.99
76122;BME280;70471;53.200;6.080;2023-12-20T10:28:50;101095.13;;;22.59;33.13
76122;BME280;70471;53.200;6.080;2023-12-20T10:33:44;101091.94;;;22.52;33.12
76122;BME280;70471;53.200;6.080;2023-12-20T10:38:37;101089.66;;;22.54;33.15
76122;BME280;70471;53.200;6.080;2023-12-20T10:43:33;101067.66;;;22.44;32.92
76122;BME280;70471;53.200;6.080;2023-12-20T10:48:25;101070.34;;;22.49;33.25
76122;BME280;70471;53.200;6.080;2023-12-20T10:53:22;101075.59;;;22.50;33.39
76122;BME280;70471;53.200;6.080;2023-12-20T10:58:16;101060.34;;;22.48;33.76
76122;BME280;70471;53.200;6.080;2023-12-20T11:03:11;101056.78;;;22.47;34.06
76122;BME280;70471;53.200;6.080;2023-12-20T11:08:08;101051.00;;;22.44;34.29
76122;BME280;70471;53.200;6.080;2023-12-20T11:13:10;101045.66;;;22.47;34.14
76122;BME280;70471;53.200;6.080;2023-12-20T11:18:06;101039.41;;;22.42;34.01
76122;BME280;70471;53.200;6.080;2023-12-20T11:22:58;101035.59;;;22.38;33.89
76122;BME280;70471;53.200;6.080;2023-12-20T11:28:09;101042.66;;;22.44;33.65
76122;BME280;70471;53.200;6.080;2023-12-20T11:33:02;101040.03;;;22.39;33.85
76122;BME280;70471;53.200;6.080;2023-12-20T11:37:58;101040.75;;;22.30;33.81
76122;BME280;70471;53.200;6.080;2023-12-20T11:42:51;101038.59;;;22.27;33.78
76122;BME280;70471;53.200;6.080;2023-12-20T11:47:46;101007.38;;;22.08;33.16
76122;BME280;70471;53.200;6.080;2023-12-20T11:52:40;101019.66;;;22.07;31.55
76122;BME280;70471;53.200;6.080;2023-12-20T11:57:34;101000.94;;;21.98;31.94
76122;BME280;70471;53.200;6.080;2023-12-20T12:02:27;101006.28;;;21.95;32.72
76122;BME280;70471;53.200;6.080;2023-12-20T12:07:21;100993.97;;;21.87;32.66
76122;BME280;70471;53.200;6.080;2023-12-20T12:12:14;100996.13;;;21.90;32.82
76122;BME280;70471;53.200;6.080;2023-12-20T12:17:10;100991.50;;;21.86;32.83
76122;BME280;70471;53.200;6.080;2023-12-20T12:22:07;100973.00;;;21.81;33.03
76122;BME280;70471;53.200;6.080;2023-12-20T12:27:05;100976.28;;;21.97;33.16
76122;BME280;70471;53.200;6.080;2023-12-20T12:31:57;100987.78;;;22.04;33.25
76122;BME280;70471;53.200;6.080;2023-12-20T12:36:50;100982.91;;;22.10;32.85
76122;BME280;70471;53.200;6.080;2023-12-20T12:41:42;100981.16;;;22.14;33.08
76122;BME280;70471;53.200;6.080;2023-12-20T12:46:36;100984.66;;;22.20;33.13
76122;BME280;70471;53.200;6.080;2023-12-20T12:51:29;100997.06;;;22.22;32.95
76122;BME280;70471;53.200;6.080;2023-12-20T12:56:22;100981.16;;;22.14;33.10
76122;BME280;70471;53.200;6.080;2023-12-20T13:01:15;100991.94;;;22.29;33.03
76122;BME280;70471;53.200;6.080;2023-12-20T13:06:10;100977.41;;;22.32;32.65
76122;BME280;70471;53.200;6.080;2023-12-20T13:11:03;100970.03;;;22.28;33.05
76122;BME280;70471;53.200;6.080;2023-12-20T13:15:55;100959.81;;;22.37;32.84
76122;BME280;70471;53.200;6.080;2023-12-20T13:20:48;100945.00;;;22.42;32.71
76122;BME280;70471;53.200;6.080;2023-12-20T13:25:42;100945.63;;;22.39;32.86
76122;BME280;70471;53.200;6.080;2023-12-20T13:30:36;100933.38;;;22.40;32.77
76122;BME280;70471;53.200;6.080;2023-12-20T13:35:29;100922.41;;;22.34;32.99
76122;BME280;70471;53.200;6.080;2023-12-20T13:40:21;100935.63;;;22.51;32.62
76122;BME280;70471;53.200;6.080;2023-12-20T13:45:16;100925.75;;;22.45;32.76
76122;BME280;70471;53.200;6.080;2023-12-20T13:50:09;100919.16;;;22.55;32.50
76122;BME280;70471;53.200;6.080;2023-12-20T13:55:01;100911.94;;;22.54;32.53
76122;BME280;70471;53.200;6.080;2023-12-20T13:59:56;100906.53;;;22.49;32.57
76122;BME280;70471;53.200;6.080;2023-12-20T14:04:51;100911.31;;;22.57;32.79
76122;BME280;70471;53.200;6.080;2023-12-20T14:09:42;100909.69;;;22.56;32.65
76122;BME280;70471;53.200;6.080;2023-12-20T14:14:36;100914.59;;;22.59;32.56
76122;BME280;70471;53.200;6.080;2023-12-20T14:19:28;100903.59;;;22.54;32.79
76122;BME280;70471;53.200;6.080;2023-12-20T14:24:22;100925.09;;;22.62;32.58
76122;BME280;70471;53.200;6.080;2023-12-20T14:29:16;100928.19;;;22.61;32.68
76122;BME280;70471;53.200;6.080;2023-12-20T14:34:09;100929.34;;;22.68;32.48
76122;BME280;70471;53.200;6.080;2023-12-20T14:39:01;100905.75;;;22.57;32.72
76122;BME280;70471;53.200;6.080;2023-12-20T14:43:56;100899.56;;;22.60;32.49
76122;BME280;70471;53.200;6.080;2023-12-20T14:48:50;100900.59;;;22.64;32.66
76122;BME280;70471;53.200;6.080;2023-12-20T14:53:43;100897.66;;;22.69;32.49
76122;BME280;70471;53.200;6.080;2023-12-20T14:58:38;100878.84;;;22.66;32.32
76122;BME280;70471;53.200;6.080;2023-12-20T15:03:32;100868.25;;;22.68;32.43
76122;BME280;70471;53.200;6.080;2023-12-20T15:08:24;100860.44;;;22.70;32.66
76122;BME280;70471;53.200;6.080;2023-12-20T15:13:17;100853.22;;;22.69;32.40
76122;BME280;70471;53.200;6.080;2023-12-20T15:18:09;100863.06;;;22.76;32.39
76122;BME280;70471;53.200;6.080;2023-12-20T15:23:03;100872.34;;;22.71;32.48
76122;BME280;70471;53.200;6.080;2023-12-20T15:27:58;100859.59;;;22.70;32.52
76122;BME280;70471;53.200;6.080;2023-12-20T15:32:53;100861.38;;;22.66;32.50
76122;BME280;70471;53.200;6.080;2023-12-20T15:37:45;100858.00;;;22.78;32.43
76122;BME280;70471;53.200;6.080;2023-12-20T15:42:39;100854.22;;;22.74;32.35
76122;BME280;70471;53.200;6.080;2023-12-20T15:47:32;100834.66;;;22.79;32.44
76122;BME280;70471;53.200;6.080;2023-12-20T15:52:24;100836.09;;;22.76;32.40
76122;BME280;70471;53.200;6.080;2023-12-20T15:57:17;100826.81;;;22.81;32.23
76122;BME280;70471;53.200;6.080;2023-12-20T16:02:11;100797.19;;;22.67;32.33
76122;BME280;70471;53.200;6.080;2023-12-20T16:07:04;100799.34;;;22.79;32.15
76122;BME280;70471;53.200;6.080;2023-12-20T16:11:57;100785.44;;;22.70;32.07
76122;BME280;70471;53.200;6.080;2023-12-20T16:16:50;100762.06;;;22.71;32.21
76122;BME280;70471;53.200;6.080;2023-12-20T16:21:44;100766.34;;;22.78;31.79
76122;BME280;70471;53.200;6.080;2023-12-20T16:26:36;100760.44;;;22.79;32.09
76122;BME280;70471;53.200;6.080;2023-12-20T16:31:29;100753.44;;;22.82;32.11
76122;BME280;70471;53.200;6.080;2023-12-20T16:36:22;100740.19;;;22.79;32.19
76122;BME280;70471;53.200;6.080;2023-12-20T16:41:16;100717.50;;;22.77;32.21
76122;BME280;70471;53.200;6.080;2023-12-20T16:46:09;100730.09;;;22.83;32.01
76122;BME280;70471;53.200;6.080;2023-12-20T16:51:01;100714.72;;;22.85;32.13
76122;BME280;70471;53.200;6.080;2023-12-20T16:55:54;100703.94;;;22.84;32.20
76122;BME280;70471;53.200;6.080;2023-12-20T17:00:48;100690.19;;;22.87;32.26
76122;BME280;70471;53.200;6.080;2023-12-20T17:05:41;100676.50;;;22.91;32.21
76122;BME280;70471;53.200;6.080;2023-12-20T17:10:33;100647.41;;;22.80;32.11
76122;BME280;70471;53.200;6.080;2023-12-20T17:15:26;100649.53;;;22.83;32.14
76122;BME280;70471;53.200;6.080;2023-12-20T17:20:19;100662.59;;;22.82;32.40
76122;BME280;70471;53.200;6.080;2023-12-20T17:25:11;100638.06;;;22.84;32.41
76122;BME280;70471;53.200;6.080;2023-12-20T17:30:05;100623.69;;;22.82;32.13
76122;BME280;70471;53.200;6.080;2023-12-20T17:34:57;100588.25;;;22.70;32.17
76122;BME280;70471;53.200;6.080;2023-12-20T17:39:51;100611.44;;;22.75;32.10
76122;BME280;70471;53.200;6.080;2023-12-20T17:44:43;100575.50;;;22.69;32.31
76122;BME280;70471;53.200;6.080;2023-12-20T17:49:35;100585.28;;;22.67;32.31
76122;BME280;70471;53.200;6.080;2023-12-20T17:54:27;100565.22;;;22.61;32.12
76122;BME280;70471;53.200;6.080;2023-12-20T17:59:22;100561.63;;;22.61;32.09
76122;BME280;70471;53.200;6.080;2023-12-20T18:04:14;100560.13;;;22.63;32.00
76122;BME280;70471;53.200;6.080;2023-12-20T18:09:09;100565.53;;;22.60;32.08
76122;BME280;70471;53.200;6.080;2023-12-20T18:14:02;100564.53;;;22.56;32.24
76122;BME280;70471;53.200;6.080;2023-12-20T18:18:55;100549.03;;;22.55;32.74
76122;BME280;70471;53.200;6.080;2023-12-20T18:23:47;100531.88;;;22.61;33.13
76122;BME280;70471;53.200;6.080;2023-12-20T18:28:39;100522.56;;;22.57;33.64
76122;BME280;70471;53.200;6.080;2023-12-20T18:33:31;100525.84;;;22.68;33.03
76122;BME280;70471;53.200;6.080;2023-12-20T18:38:27;100514.25;;;22.66;33.42
76122;BME280;70471;53.200;6.080;2023-12-20T18:43:21;100522.75;;;22.78;33.54
76122;BME280;70471;53.200;6.080;2023-12-20T18:48:15;100516.53;;;22.81;33.76
76122;BME280;70471;53.200;6.080;2023-12-20T18:53:07;100512.59;;;22.82;33.74
76122;BME280;70471;53.200;6.080;2023-12-20T18:58:00;100499.34;;;22.88;33.46
76122;BME280;70471;53.200;6.080;2023-12-20T19:02:52;100502.75;;;22.94;33.65
76122;BME280;70471;53.200;6.080;2023-12-20T19:07:44;100477.78;;;22.85;33.93
76122;BME280;70471;53.200;6.080;2023-12-20T19:12:37;100476.94;;;22.93;34.07
76122;BME280;70471;53.200;6.080;2023-12-20T19:17:30;100472.19;;;23.02;33.72
76122;BME280;70471;53.200;6.080;2023-12-20T19:22:23;100465.66;;;22.98;33.99
76122;BME280;70471;53.200;6.080;2023-12-20T19:27:19;100465.13;;;23.05;33.77
76122;BME280;70471;53.200;6.080;2023-12-20T19:32:11;100474.94;;;23.11;33.76
76122;BME280;70471;53.200;6.080;2023-12-20T19:37:05;100455.81;;;23.10;33.68
76122;BME280;70471;53.200;6.080;2023-12-20T19:41:57;100450.59;;;23.17;33.59
76122;BME280;70471;53.200;6.080;2023-12-20T19:46:49;100465.44;;;23.21;33.59
76122;BME280;70471;53.200;6.080;2023-12-20T19:51:42;100455.78;;;23.27;33.91
76122;BME280;70471;53.200;6.080;2023-12-20T19:56:35;100462.78;;;23.33;33.35
76122;BME280;70471;53.200;6.080;2023-12-20T20:01:28;100452.84;;;23.32;33.97
76122;BME280;70471;53.200;6.080;2023-12-20T20:06:20;100449.88;;;23.37;33.75
76122;BME280;70471;53.200;6.080;2023-12-20T20:11:13;100456.38;;;23.41;33.64
76122;BME280;70471;53.200;6.080;2023-12-20T20:16:07;100430.41;;;23.37;33.52
76122;BME280;70471;53.200;6.080;2023-12-20T20:20:59;100434.13;;;23.41;33.51
76122;BME280;70471;53.200;6.080;2023-12-20T20:25:51;100438.09;;;23.32;33.55
76122;BME280;70471;53.200;6.080;2023-12-20T20:30:43;100441.72;;;23.32;33.64
76122;BME280;70471;53.200;6.080;2023-12-20T20:35:36;100427.31;;;23.30;33.87
76122;BME280;70471;53.200;6.080;2023-12-20T20:40:28;100417.06;;;23.22;34.35
76122;BME280;70471;53.200;6.080;2023-12-20T20:45:21;100407.28;;;23.16;34.35
76122;BME280;70471;53.200;6.080;2023-12-20T20:50:13;100406.13;;;23.17;34.12
76122;BME280;70471;53.200;6.080;2023-12-20T20:55:08;100381.13;;;23.08;33.90
76122;BME280;70471;53.200;6.080;2023-12-20T21:00:00;100374.09;;;23.02;34.10
76122;BME280;70471;53.200;6.080;2023-12-20T21:04:52;100374.59;;;23.04;34.11
76122;BME280;70471;53.200;6.080;2023-12-20T21:09:45;100370.25;;;22.94;33.79
76122;BME280;70471;53.200;6.080;2023-12-20T21:14:41;100387.72;;;22.86;33.75
76122;BME280;70471;53.200;6.080;2023-12-20T21:19:33;100393.78;;;22.88;34.13
76122;BME280;70471;53.200;6.080;2023-12-20T21:24:24;100417.81;;;22.84;34.01
76122;BME280;70471;53.200;6.080;2023-12-20T21:29:16;100422.25;;;22.76;34.11
76122;BME280;70471;53.200;6.080;2023-12-20T21:34:10;100410.97;;;22.73;34.27
76122;BME280;70471;53.200;6.080;2023-12-20T21:39:03;100409.66;;;22.70;34.27
76122;BME280;70471;53.200;6.080;2023-12-20T21:43:55;100413.94;;;22.67;33.87
76122;BME280;70471;53.200;6.080;2023-12-20T21:48:47;100406.44;;;22.59;34.20
76122;BME280;70471;53.200;6.080;2023-12-20T21:53:41;100404.34;;;22.56;33.95
76122;BME280;70471;53.200;6.080;2023-12-20T21:58:33;100410.38;;;22.58;34.03
76122;BME280;70471;53.200;6.080;2023-12-20T22:03:26;100393.22;;;22.47;33.81
76122;BME280;70471;53.200;6.080;2023-12-20T22:08:19;100392.91;;;22.49;33.82
76122;BME280;70471;53.200;6.080;2023-12-20T22:13:13;100380.97;;;22.40;33.64
76122;BME280;70471;53.200;6.080;2023-12-20T22:18:06;100371.03;;;22.39;33.68
76122;BME280;70471;53.200;6.080;2023-12-20T22:22:59;100357.94;;;22.30;33.51
76122;BME280;70471;53.200;6.080;2023-12-20T22:27:53;100353.22;;;22.31;33.90
76122;BME280;70471;53.200;6.080;2023-12-20T22:32:46;100356.19;;;22.26;33.71
76122;BME280;70471;53.200;6.080;2023-12-20T22:37:38;100364.31;;;22.22;33.75
76122;BME280;70471;53.200;6.080;2023-12-20T22:42:32;100343.94;;;22.18;33.94
76122;BME280;70471;53.200;6.080;2023-12-20T22:47:24;100343.63;;;22.11;33.84
76122;BME280;70471;53.200;6.080;2023-12-20T22:52:19;100325.50;;;22.05;33.91
76122;BME280;70471;53.200;6.080;2023-12-20T22:57:11;100332.22;;;22.04;34.25
76122;BME280;70471;53.200;6.080;2023-12-20T23:02:03;100307.25;;;21.95;34.30
76122;BME280;70471;53.200;6.080;2023-12-20T23:06:55;100313.25;;;21.97;34.30
76122;BME280;70471;53.200;6.080;2023-12-20T23:11:49;100310.34;;;21.93;34.38
76122;BME280;70471;53.200;6.080;2023-12-20T23:16:41;100302.66;;;21.90;34.28
76122;BME280;70471;53.200;6.080;2023-12-20T23:21:33;100313.59;;;21.87;34.28
76122;BME280;70471;53.200;6.080;2023-12-20T23:26:26;100303.00;;;21.80;34.02
76122;BME280;70471;53.200;6.080;2023-12-20T23:31:23;100304.16;;;21.79;34.52
76122;BME280;70471;53.200;6.080;2023-12-20T23:36:16;100285.06;;;21.69;34.19
76122;BME280;70471;53.200;6.080;2023-12-20T23:41:09;100281.59;;;21.72;34.40
76122;BME280;70471;53.200;6.080;2023-12-20T23:46:00;100265.31;;;21.61;34.15
76122;BME280;70471;53.200;6.080;2023-12-20T23:50:54;100263.84;;;21.64;34.55
76122;BME280;70471;53.200;6.080;2023-12-20T23:55:46;100246.56;;;21.58;34.30
